Virgie Cenac — WDC2765 — position and weather

sailwx.info

Track history (hours):
 
Tides and Currents Weather Stations Pressure Air Temp Water Temp Dewpoint Dewpoint Depression Visibility Wind Speed Wind Dir Waves Ship Positions

Virgie Cenac

Owner: Cenac Marine Transportation, Inc., Houma, LA. More information available from US FCC via Universal Licensing System and Coast Guard Vessel Documentation Center.

Last reported at 2016-Apr-29 03:21 UTC. Time now 2016-May-05 23:51 UTC.
Position N 29°25' W 090°44'.

Length 18 m; draft 3 m.

Type: Towing. MMSI: 366997430.

Date/timePositionNaut miles runAvg speedWind from/ knotsBaromVisibWave heightAir tempDewpointWater temp
2016-Apr-29 03:21N 29°25' W 090°44'3 4.1
2016-Apr-29 02:34N 29°28' W 090°43'4 4.1
2016-Apr-29 01:34N 29°32' W 090°42'4 3.5
2016-Apr-29 00:33N 29°35' W 090°43'2 1.8
2016-Apr-28 23:34N 29°37' W 090°41'2 1.6
2016-Apr-28 22:34N 29°36' W 090°40'0 0.1
2016-Apr-28 21:33N 29°36' W 090°40'0 0.1
2016-Apr-28 20:26N 29°36' W 090°40'0 0.1
2016-Apr-28 19:34N 29°36' W 090°40'0 0.0
2016-Apr-28 18:33N 29°36' W 090°40'0 0.0
2016-Apr-28 17:33N 29°36' W 090°40'0 0.0
2016-Apr-28 16:34N 29°36' W 090°40'0 0.0
2016-Apr-28 15:34N 29°36' W 090°40'0 0.0
2016-Apr-28 14:32N 29°36' W 090°40'0 0.0
2016-Apr-28 13:33N 29°36' W 090°40'0 0.1
2016-Apr-28 12:33N 29°36' W 090°40'0 0.0
2016-Apr-28 11:33N 29°36' W 090°40'0 0.1
2016-Apr-28 10:33N 29°36' W 090°40'0 0.0
2016-Apr-28 09:33N 29°36' W 090°40'0 0.0
2016-Apr-28 08:32N 29°36' W 090°40'0 0.0
2016-Apr-28 07:06N 29°36' W 090°40'0 0.0
2016-Apr-28 06:34N 29°36' W 090°40'0 0.0
2016-Apr-28 03:31N 29°36' W 090°40'0 0.0
2016-Apr-28 02:34N 29°36' W 090°40'0 0.2
2016-Apr-28 01:33N 29°36' W 090°40'0 0.1
2016-Apr-28 00:34N 29°36' W 090°40'0 0.0
2016-Apr-27 23:33N 29°36' W 090°40'0 0.0
2016-Apr-27 22:33N 29°36' W 090°40'0 0.0
2016-Apr-27 21:34N 29°36' W 090°40'0 0.0
2016-Apr-27 20:34N 29°36' W 090°40'0 0.0
2016-Apr-27 19:34N 29°36' W 090°40'0 0.0
2016-Apr-27 18:33N 29°36' W 090°40'0 0.0
2016-Apr-27 17:34N 29°36' W 090°40'0 0.0
2016-Apr-27 16:34N 29°36' W 090°40'0 0.1
2016-Apr-27 15:32N 29°36' W 090°40'0 0.1
2016-Apr-27 14:34N 29°36' W 090°40'0 0.0
2016-Apr-27 13:34N 29°36' W 090°40'0 0.1
2016-Apr-27 12:33N 29°36' W 090°40'0 0.1
2016-Apr-27 11:33N 29°36' W 090°40'0 0.0
2016-Apr-26 07:33N 29°36' W 090°40'0 0.0
2016-Apr-26 06:33N 29°36' W 090°40'0 0.0
2016-Apr-26 05:26N 29°36' W 090°40'0 0.0
2016-Apr-26 04:32N 29°36' W 090°40'0 0.0
2016-Apr-26 03:27N 29°36' W 090°40'0 0.0
2016-Apr-26 02:33N 29°36' W 090°40'0 0.0
2016-Apr-26 01:33N 29°36' W 090°40'0 0.0
2016-Apr-26 00:33N 29°36' W 090°40'0 0.0
2016-Apr-25 23:33N 29°36' W 090°40'0 0.0
2016-Apr-25 22:32N 29°36' W 090°40'0 0.1
2016-Apr-25 21:33N 29°36' W 090°40'0 0.1
2016-Apr-25 20:33N 29°36' W 090°40'0 0.0
2016-Apr-25 19:33N 29°36' W 090°40'2 1.7
2016-Apr-25 18:33N 29°37' W 090°42'7 6.6
2016-Apr-25 17:33N 29°30' W 090°43'2 0.1
2016-Apr-25 00:33N 29°28' W 090°43'5 5.4
2016-Apr-24 23:33N 29°33' W 090°43'3 3.4
2016-Apr-24 22:33N 29°37' W 090°42'2 1.7
2016-Apr-24 21:27N 29°36' W 090°40'0 0.0
2016-Apr-24 20:33N 29°36' W 090°40'0 0.1
2016-Apr-24 19:32N 29°36' W 090°40'0 0.1
2016-Apr-24 18:29N 29°36' W 090°40'0 0.0
2016-Apr-24 17:28N 29°36' W 090°40'0 0.2
2016-Apr-24 16:33N 29°36' W 090°40'0 0.1
2016-Apr-24 15:33N 29°36' W 090°40'0 0.1
2016-Apr-24 14:33N 29°36' W 090°40'0 0.1
2016-Apr-24 13:06N 29°36' W 090°40'0 0.0
2016-Apr-24 12:30N 29°36' W 090°40'0 0.1
2016-Apr-24 11:31N 29°36' W 090°40'0 0.0
2016-Apr-24 10:07N 29°36' W 090°40'0 0.0
2016-Apr-24 09:33N 29°36' W 090°40'0 0.0
2016-Apr-24 08:33N 29°36' W 090°40'0 0.0
2016-Apr-24 07:33N 29°36' W 090°40'0 0.0
2016-Apr-24 06:32N 29°36' W 090°40'0 0.0
2016-Apr-24 05:27N 29°36' W 090°40'3 3.2
2016-Apr-24 04:29N 29°35' W 090°37'31 4.4
2016-Apr-23 21:19N 29°48' W 090°04'4 5.0
2016-Apr-23 20:33N 29°51' W 090°01'5 2.6
2016-Apr-23 18:33N 29°55' W 089°58'0 0.2
2016-Apr-23 17:32N 29°55' W 089°57'0 0.2
2016-Apr-23 16:18N 29°55' W 089°57'0 0.0
2016-Apr-23 15:32N 29°55' W 089°57'0 0.0
2016-Apr-23 12:10N 29°55' W 089°57'0 0.0
2016-Apr-23 06:33N 29°55' W 089°57'0 0.0
2016-Apr-23 05:33N 29°55' W 089°57'5 4.7
2016-Apr-23 04:33N 29°58' W 090°02'0 0.3
2016-Apr-23 03:33N 29°58' W 090°02'1 0.6
2016-Apr-23 02:29N 29°59' W 090°01'1 0.2
2016-Apr-22 20:09N 29°60' W 090°00'0 0.1
2016-Apr-22 19:06N 29°60' W 090°00'0 0.3
2016-Apr-22 18:33N 29°60' W 090°01'163 3.2
2016-Apr-20 16:22N 30°22' W 086°54'2 1.5
2016-Apr-20 15:22N 30°22' W 086°52'  
Track history (hours):
 
Tides and Currents Weather Stations Pressure Air Temp Water Temp Dewpoint Dewpoint Depression Visibility Wind Speed Wind Dir Waves Ship Positions

Virgie Cenac

Owner: Cenac Marine Transportation, Inc., Houma, LA. More information available from US FCC via Universal Licensing System and Coast Guard Vessel Documentation Center.

Last reported at 2016-Apr-29 03:21 UTC. Time now 2016-May-05 23:51 UTC.
Position N 29°25' W 090°44'.

Length 18 m; draft 3 m.

Type: Towing. MMSI: 366997430.

Date/timePositionNaut miles runAvg speedWind from/ knotsBaromVisibWave heightAir tempDewpointWater temp
2016-Apr-29 03:21N 29°25' W 090°44'3 4.1
2016-Apr-29 02:34N 29°28' W 090°43'4 4.1
2016-Apr-29 01:34N 29°32' W 090°42'4 3.5
2016-Apr-29 00:33N 29°35' W 090°43'2 1.8
2016-Apr-28 23:34N 29°37' W 090°41'2 1.6
2016-Apr-28 22:34N 29°36' W 090°40'0 0.1
2016-Apr-28 21:33N 29°36' W 090°40'0 0.1
2016-Apr-28 20:26N 29°36' W 090°40'0 0.1
2016-Apr-28 19:34N 29°36' W 090°40'0 0.0
2016-Apr-28 18:33N 29°36' W 090°40'0 0.0
2016-Apr-28 17:33N 29°36' W 090°40'0 0.0
2016-Apr-28 16:34N 29°36' W 090°40'0 0.0
2016-Apr-28 15:34N 29°36' W 090°40'0 0.0
2016-Apr-28 14:32N 29°36' W 090°40'0 0.0
2016-Apr-28 13:33N 29°36' W 090°40'0 0.1
2016-Apr-28 12:33N 29°36' W 090°40'0 0.0
2016-Apr-28 11:33N 29°36' W 090°40'0 0.1
2016-Apr-28 10:33N 29°36' W 090°40'0 0.0
2016-Apr-28 09:33N 29°36' W 090°40'0 0.0
2016-Apr-28 08:32N 29°36' W 090°40'0 0.0
2016-Apr-28 07:06N 29°36' W 090°40'0 0.0
2016-Apr-28 06:34N 29°36' W 090°40'0 0.0
2016-Apr-28 03:31N 29°36' W 090°40'0 0.0
2016-Apr-28 02:34N 29°36' W 090°40'0 0.2
2016-Apr-28 01:33N 29°36' W 090°40'0 0.1
2016-Apr-28 00:34N 29°36' W 090°40'0 0.0
2016-Apr-27 23:33N 29°36' W 090°40'0 0.0
2016-Apr-27 22:33N 29°36' W 090°40'0 0.0
2016-Apr-27 21:34N 29°36' W 090°40'0 0.0
2016-Apr-27 20:34N 29°36' W 090°40'0 0.0
2016-Apr-27 19:34N 29°36' W 090°40'0 0.0
2016-Apr-27 18:33N 29°36' W 090°40'0 0.0
2016-Apr-27 17:34N 29°36' W 090°40'0 0.0
2016-Apr-27 16:34N 29°36' W 090°40'0 0.1
2016-Apr-27 15:32N 29°36' W 090°40'0 0.1
2016-Apr-27 14:34N 29°36' W 090°40'0 0.0
2016-Apr-27 13:34N 29°36' W 090°40'0 0.1
2016-Apr-27 12:33N 29°36' W 090°40'0 0.1
2016-Apr-27 11:33N 29°36' W 090°40'0 0.0
2016-Apr-26 07:33N 29°36' W 090°40'0 0.0
2016-Apr-26 06:33N 29°36' W 090°40'0 0.0
2016-Apr-26 05:26N 29°36' W 090°40'0 0.0
2016-Apr-26 04:32N 29°36' W 090°40'0 0.0
2016-Apr-26 03:27N 29°36' W 090°40'0 0.0
2016-Apr-26 02:33N 29°36' W 090°40'0 0.0
2016-Apr-26 01:33N 29°36' W 090°40'0 0.0
2016-Apr-26 00:33N 29°36' W 090°40'0 0.0
2016-Apr-25 23:33N 29°36' W 090°40'0 0.0
2016-Apr-25 22:32N 29°36' W 090°40'0 0.1
2016-Apr-25 21:33N 29°36' W 090°40'0 0.1
2016-Apr-25 20:33N 29°36' W 090°40'0 0.0
2016-Apr-25 19:33N 29°36' W 090°40'2 1.7
2016-Apr-25 18:33N 29°37' W 090°42'7 6.6
2016-Apr-25 17:33N 29°30' W 090°43'2 0.1
2016-Apr-25 00:33N 29°28' W 090°43'5 5.4
2016-Apr-24 23:33N 29°33' W 090°43'3 3.4
2016-Apr-24 22:33N 29°37' W 090°42'2 1.7
2016-Apr-24 21:27N 29°36' W 090°40'0 0.0
2016-Apr-24 20:33N 29°36' W 090°40'0 0.1
2016-Apr-24 19:32N 29°36' W 090°40'0 0.1
2016-Apr-24 18:29N 29°36' W 090°40'0 0.0
2016-Apr-24 17:28N 29°36' W 090°40'0 0.2
2016-Apr-24 16:33N 29°36' W 090°40'0 0.1
2016-Apr-24 15:33N 29°36' W 090°40'0 0.1
2016-Apr-24 14:33N 29°36' W 090°40'0 0.1
2016-Apr-24 13:06N 29°36' W 090°40'0 0.0
2016-Apr-24 12:30N 29°36' W 090°40'0 0.1
2016-Apr-24 11:31N 29°36' W 090°40'0 0.0
2016-Apr-24 10:07N 29°36' W 090°40'0 0.0
2016-Apr-24 09:33N 29°36' W 090°40'0 0.0
2016-Apr-24 08:33N 29°36' W 090°40'0 0.0
2016-Apr-24 07:33N 29°36' W 090°40'0 0.0
2016-Apr-24 06:32N 29°36' W 090°40'0 0.0
2016-Apr-24 05:27N 29°36' W 090°40'3 3.2
2016-Apr-24 04:29N 29°35' W 090°37'31 4.4
2016-Apr-23 21:19N 29°48' W 090°04'4 5.0
2016-Apr-23 20:33N 29°51' W 090°01'5 2.6
2016-Apr-23 18:33N 29°55' W 089°58'0 0.2
2016-Apr-23 17:32N 29°55' W 089°57'0 0.2
2016-Apr-23 16:18N 29°55' W 089°57'0 0.0
2016-Apr-23 15:32N 29°55' W 089°57'0 0.0
2016-Apr-23 12:10N 29°55' W 089°57'0 0.0
2016-Apr-23 06:33N 29°55' W 089°57'0 0.0
2016-Apr-23 05:33N 29°55' W 089°57'5 4.7
2016-Apr-23 04:33N 29°58' W 090°02'0 0.3
2016-Apr-23 03:33N 29°58' W 090°02'1 0.6
2016-Apr-23 02:29N 29°59' W 090°01'1 0.2
2016-Apr-22 20:09N 29°60' W 090°00'0 0.1
2016-Apr-22 19:06N 29°60' W 090°00'0 0.3
2016-Apr-22 18:33N 29°60' W 090°01'163 3.2
2016-Apr-20 16:22N 30°22' W 086°54'2 1.5
2016-Apr-20 15:22N 30°22' W 086°52'  

Dump ship's entire track history